Time;durP1;ratioP1;P1;durP2;ratioP2;P2;SDS_P1;SDS_P2;PMS_P1;PMS_P2;Temp;Humidity;BMP_temperature;BMP_pressure;BME280_temperature;BME280_humidity;BME280_pressure;Samples;Min_cycle;Max_cycle;Signal;HPM_P1;HPM_P2
2023/08/03 00:02:22;;;;;;;6.40;1.63;;;16.60;99.90;;;;;;5071761;28;20481;-68
2023/08/03 00:04:49;;;;;;;3.23;1.97;;;16.60;99.90;;;;;;5071929;28;20464;-68
2023/08/03 00:07:15;;;;;;;3.23;1.60;;;16.70;99.90;;;;;;5071290;28;20453;-68
2023/08/03 00:09:46;;;;;;;3.00;2.40;;;16.60;99.90;;;;;;5071869;28;20486;-68
2023/08/03 00:12:13;;;;;;;3.97;1.73;;;16.60;99.90;;;;;;5071363;28;20930;-68
2023/08/03 00:14:39;;;;;;;4.83;1.63;;;16.70;99.90;;;;;;5071775;28;20841;-68
2023/08/03 00:17:06;;;;;;;1.67;1.57;;;16.70;99.90;;;;;;5070773;28;20454;-67
2023/08/03 00:19:34;;;;;;;2.13;1.40;;;16.70;99.90;;;;;;5071511;28;20477;-68
2023/08/03 00:22:01;;;;;;;1.90;1.60;;;16.70;99.90;;;;;;5071278;28;20482;-68
2023/08/03 00:24:27;;;;;;;2.10;1.67;;;16.70;99.90;;;;;;5071483;28;20831;-68
2023/08/03 00:26:54;;;;;;;1.50;1.27;;;16.70;99.90;;;;;;5071005;28;20462;-68
2023/08/03 00:29:21;;;;;;;1.50;1.20;;;16.70;99.90;;;;;;5070813;28;20488;-68
2023/08/03 00:31:47;;;;;;;2.60;1.20;;;16.70;99.90;;;;;;5071354;28;20454;-68
2023/08/03 00:34:14;;;;;;;3.20;1.70;;;16.70;99.90;;;;;;5070971;28;20457;-68
2023/08/03 00:36:42;;;;;;;3.70;1.40;;;16.70;99.90;;;;;;5071164;28;20458;-68
2023/08/03 00:39:09;;;;;;;2.80;1.97;;;16.80;99.90;;;;;;5070458;28;20479;-68
2023/08/03 00:41:37;;;;;;;2.30;1.63;;;16.80;99.90;;;;;;5071048;28;20485;-68
2023/08/03 00:44:03;;;;;;;2.43;1.70;;;16.80;99.90;;;;;;5070870;28;20458;-68
2023/08/03 00:46:30;;;;;;;1.70;1.40;;;16.80;99.90;;;;;;5070896;28;20461;-68
2023/08/03 00:48:57;;;;;;;3.27;1.90;;;16.80;99.90;;;;;;5070225;28;20508;-68
2023/08/03 00:51:24;;;;;;;4.60;1.63;;;16.80;99.90;;;;;;5071005;28;20456;-68
2023/08/03 00:53:52;;;;;;;2.50;2.03;;;16.70;99.90;;;;;;5071012;28;20965;-68
2023/08/03 00:56:19;;;;;;;2.60;1.77;;;16.70;99.90;;;;;;5070506;28;20455;-68
2023/08/03 00:58:45;;;;;;;1.67;1.37;;;16.70;99.90;;;;;;5070438;28;21028;-68
2023/08/03 01:01:12;;;;;;;2.33;1.60;;;16.70;99.90;;;;;;5070188;28;20461;-68
2023/08/03 01:03:39;;;;;;;2.90;1.80;;;16.70;99.90;;;;;;5070776;28;20968;-68
2023/08/03 01:06:05;;;;;;;3.47;1.80;;;16.60;99.90;;;;;;5070171;28;20469;-68
2023/08/03 01:08:33;;;;;;;3.50;1.80;;;16.60;99.90;;;;;;5070117;28;20488;-68
2023/08/03 01:11:01;;;;;;;4.07;1.47;;;16.70;99.90;;;;;;5070451;28;20459;-68
2023/08/03 01:13:28;;;;;;;3.77;1.73;;;16.70;99.90;;;;;;5070388;28;20493;-68
2023/08/03 01:15:57;;;;;;;3.17;2.10;;;16.70;99.90;;;;;;5070341;28;20458;-68
2023/08/03 01:18:23;;;;;;;3.30;1.43;;;16.70;99.90;;;;;;5070076;28;20471;-68
2023/08/03 01:20:50;;;;;;;3.10;1.90;;;16.60;99.90;;;;;;5070467;28;20463;-68
2023/08/03 01:23:18;;;;;;;3.33;1.83;;;16.60;99.90;;;;;;5069844;28;20488;-68
2023/08/03 01:25:45;;;;;;;2.93;1.47;;;16.60;99.90;;;;;;5070268;28;20818;-68
2023/08/03 01:28:11;;;;;;;3.20;1.70;;;16.60;99.90;;;;;;5069595;28;20482;-68
2023/08/03 01:30:38;;;;;;;1.80;1.30;;;16.60;99.90;;;;;;5070371;28;20845;-69
2023/08/03 01:33:05;;;;;;;4.63;1.73;;;16.60;99.90;;;;;;5070193;28;20455;-68
2023/08/03 01:35:32;;;;;;;5.00;1.60;;;16.70;99.90;;;;;;5070078;28;20740;-68
2023/08/03 01:37:58;;;;;;;2.60;1.47;;;16.70;99.90;;;;;;5069804;28;20825;-68
2023/08/03 01:40:26;;;;;;;2.93;1.40;;;16.70;99.90;;;;;;5070078;28;20462;-68
2023/08/03 01:42:53;;;;;;;4.90;1.67;;;16.70;99.90;;;;;;5070276;28;20476;-68
2023/08/03 01:45:20;;;;;;;2.83;1.60;;;16.70;99.90;;;;;;5069585;28;20458;-68
2023/08/03 01:47:47;;;;;;;1.90;1.20;;;16.70;99.90;;;;;;5069895;28;20475;-68
2023/08/03 01:50:13;;;;;;;1.70;1.10;;;16.70;99.90;;;;;;5069791;28;20461;-68
2023/08/03 01:52:40;;;;;;;3.10;1.33;;;16.70;99.90;;;;;;5070239;28;20836;-68
2023/08/03 01:55:08;;;;;;;2.23;1.40;;;16.70;99.90;;;;;;5069705;28;20474;-68
2023/08/03 01:57:36;;;;;;;2.90;1.40;;;16.60;99.90;;;;;;5069551;28;20478;-68
2023/08/03 02:00:03;;;;;;;4.17;1.33;;;16.60;99.90;;;;;;5069660;28;20455;-68
2023/08/03 02:02:30;;;;;;;1.67;1.20;;;16.60;99.90;;;;;;5069851;28;20475;-68
2023/08/03 02:04:56;;;;;;;1.90;1.30;;;16.70;99.90;;;;;;5069983;28;20455;-68
2023/08/03 02:07:42;;;;;;;4.10;1.47;;;16.70;99.90;;;;;;5069076;28;20985;-68
2023/08/03 02:10:10;;;;;;;1.93;1.30;;;16.60;99.90;;;;;;5069750;28;20470;-68
2023/08/03 02:12:38;;;;;;;1.83;1.40;;;16.60;99.90;;;;;;5069959;28;20452;-68
2023/08/03 02:15:06;;;;;;;4.10;1.80;;;16.50;99.90;;;;;;5069554;28;20464;-68
2023/08/03 02:17:33;;;;;;;6.30;1.57;;;16.50;99.90;;;;;;5069148;28;20491;-68
2023/08/03 02:20:00;;;;;;;1.47;1.00;;;16.50;99.90;;;;;;5069815;28;20450;-68
2023/08/03 02:22:27;;;;;;;1.73;1.00;;;16.50;99.90;;;;;;5069721;28;20482;-68
2023/08/03 02:24:53;;;;;;;2.10;1.10;;;16.50;99.90;;;;;;5069735;28;20455;-68
2023/08/03 02:27:20;;;;;;;4.83;1.80;;;16.50;99.90;;;;;;5068798;28;20880;-68
2023/08/03 02:29:48;;;;;;;1.60;1.30;;;16.40;99.90;;;;;;5069640;28;20464;-68
2023/08/03 02:32:15;;;;;;;4.03;1.60;;;16.40;99.90;;;;;;5069347;28;20455;-68
2023/08/03 02:34:41;;;;;;;2.70;1.63;;;16.40;99.90;;;;;;5070528;28;20972;-68
2023/08/03 02:37:08;;;;;;;2.60;1.53;;;16.40;99.90;;;;;;5072772;28;20891;-68
2023/08/03 02:39:35;;;;;;;4.87;1.47;;;16.40;99.90;;;;;;5073341;28;20484;-68
2023/08/03 02:42:01;;;;;;;1.50;1.10;;;16.40;99.90;;;;;;5073405;28;20481;-68
2023/08/03 02:44:28;;;;;;;3.33;1.43;;;16.40;99.90;;;;;;5072780;28;20465;-68
2023/08/03 02:46:56;;;;;;;3.93;1.83;;;16.40;99.90;;;;;;5073119;28;20461;-68
2023/08/03 02:49:23;;;;;;;2.80;1.40;;;16.40;99.90;;;;;;5072500;28;20491;-68
2023/08/03 02:51:49;;;;;;;1.77;1.40;;;16.40;99.90;;;;;;5073323;28;20476;-68
2023/08/03 02:54:16;;;;;;;3.83;1.53;;;16.40;99.90;;;;;;5072804;28;20468;-68
2023/08/03 02:56:43;;;;;;;4.20;1.57;;;16.40;99.90;;;;;;5073047;28;20462;-68
2023/08/03 02:59:10;;;;;;;2.80;1.47;;;16.40;99.90;;;;;;5072285;28;20484;-68
2023/08/03 03:01:37;;;;;;;2.10;1.43;;;16.30;99.90;;;;;;5068073;28;21030;-68
2023/08/03 03:04:05;;;;;;;2.97;1.80;;;16.30;99.90;;;;;;5073055;28;20462;-68
2023/08/03 03:06:32;;;;;;;1.67;1.37;;;16.30;99.90;;;;;;5064974;28;20459;-69
2023/08/03 03:08:59;;;;;;;3.63;1.60;;;16.30;99.90;;;;;;5072441;28;20482;-68
2023/08/03 03:11:25;;;;;;;4.70;1.67;;;16.30;99.90;;;;;;5072495;28;20462;-68
2023/08/03 03:13:52;;;;;;;4.80;1.57;;;16.30;99.90;;;;;;5072826;28;20902;-68
2023/08/03 03:16:25;;;;;;;2.40;1.17;;;16.30;99.90;;;;;;5072206;28;20459;-68
2023/08/03 03:18:52;;;;;;;3.40;2.07;;;16.30;99.90;;;;;;5072405;28;20534;-68
2023/08/03 03:21:20;;;;;;;3.10;1.40;;;16.30;99.90;;;;;;5072246;28;20466;-68
2023/08/03 03:23:47;;;;;;;2.80;1.23;;;16.30;99.90;;;;;;5072493;28;20484;-68
2023/08/03 03:26:14;;;;;;;8.43;1.60;;;16.30;99.90;;;;;;5072116;28;20493;-68
2023/08/03 03:28:41;;;;;;;7.10;1.90;;;16.20;99.90;;;;;;5072037;28;20480;-68
2023/08/03 03:31:07;;;;;;;2.27;1.77;;;16.20;99.90;;;;;;5070108;28;20469;-68
2023/08/03 03:33:34;;;;;;;4.40;1.70;;;16.20;99.90;;;;;;5068789;28;20821;-68
2023/08/03 03:36:01;;;;;;;3.00;1.47;;;16.20;99.90;;;;;;5069430;28;20455;-68
2023/08/03 03:38:29;;;;;;;2.83;1.40;;;16.20;99.90;;;;;;5068696;28;20485;-68
2023/08/03 03:40:56;;;;;;;2.77;1.60;;;16.20;99.90;;;;;;5069515;28;20839;-67
2023/08/03 03:43:22;;;;;;;2.13;1.30;;;16.20;99.90;;;;;;5069614;28;20483;-68
2023/08/03 03:45:49;;;;;;;6.13;1.60;;;16.20;99.90;;;;;;5069813;28;20455;-68
2023/08/03 03:48:16;;;;;;;3.33;1.70;;;16.20;99.90;;;;;;5071249;28;20587;-68
2023/08/03 03:50:43;;;;;;;5.27;2.10;;;16.10;99.90;;;;;;5072265;28;20494;-68
2023/08/03 03:53:10;;;;;;;3.30;1.53;;;16.10;99.90;;;;;;5071579;28;20458;-68
2023/08/03 03:55:38;;;;;;;2.33;1.40;;;16.10;99.90;;;;;;5071043;28;20810;-67
2023/08/03 03:58:04;;;;;;;2.10;1.50;;;16.10;99.90;;;;;;5071198;28;20481;-68
2023/08/03 04:00:33;;;;;;;3.63;1.50;;;16.10;99.90;;;;;;5070962;28;20461;-68
2023/08/03 04:02:59;;;;;;;2.40;1.23;;;16.10;99.90;;;;;;5071251;28;20482;-68
2023/08/03 04:05:26;;;;;;;2.10;1.10;;;16.10;99.90;;;;;;5070816;28;20465;-68
2023/08/03 04:07:53;;;;;;;1.40;1.10;;;16.10;99.90;;;;;;5071173;28;20972;-68
2023/08/03 04:10:20;;;;;;;2.80;1.50;;;16.10;99.90;;;;;;5070805;28;20491;-68
2023/08/03 04:12:48;;;;;;;3.77;1.50;;;16.10;99.90;;;;;;5071152;28;20456;-68
2023/08/03 04:15:15;;;;;;;5.73;1.40;;;16.00;99.90;;;;;;5068236;28;20466;-68
2023/08/03 04:17:45;;;;;;;3.07;1.33;;;16.00;99.90;;;;;;5070630;28;20577;-68
2023/08/03 04:20:12;;;;;;;3.43;1.50;;;16.10;99.90;;;;;;5070904;28;20553;-68
2023/08/03 04:22:39;;;;;;;1.63;1.00;;;16.10;99.90;;;;;;5071003;28;20864;-68
2023/08/03 04:25:06;;;;;;;4.00;2.43;;;16.10;99.90;;;;;;5070467;28;20832;-68
2023/08/03 04:27:33;;;;;;;5.33;1.57;;;16.10;99.90;;;;;;5068617;28;20456;-68
2023/08/03 04:30:01;;;;;;;4.07;1.50;;;16.10;99.90;;;;;;5071384;28;20548;-68
2023/08/03 04:32:28;;;;;;;2.33;1.20;;;16.00;99.90;;;;;;5069885;28;20454;-68
2023/08/03 04:34:55;;;;;;;1.63;1.10;;;16.00;99.90;;;;;;5070856;28;20465;-68
2023/08/03 04:37:21;;;;;;;2.30;1.10;;;16.00;99.90;;;;;;5070240;28;20842;-68
2023/08/03 04:39:49;;;;;;;2.70;1.57;;;16.10;99.90;;;;;;5070967;28;20462;-68
2023/08/03 04:42:16;;;;;;;1.53;1.27;;;16.10;99.90;;;;;;5070624;28;20492;-68
2023/08/03 04:44:42;;;;;;;2.83;1.30;;;16.10;99.90;;;;;;5070876;28;20476;-68
2023/08/03 04:47:10;;;;;;;2.97;1.27;;;16.10;99.90;;;;;;5070450;28;20552;-68
2023/08/03 04:49:37;;;;;;;1.20;0.83;;;16.10;99.90;;;;;;5070492;28;20520;-68
2023/08/03 04:52:05;;;;;;;1.10;0.70;;;16.10;99.90;;;;;;5070979;28;20503;-68
2023/08/03 04:54:31;;;;;;;1.47;0.90;;;16.10;99.90;;;;;;5070505;28;20844;-68
2023/08/03 04:56:58;;;;;;;1.93;1.50;;;16.10;99.90;;;;;;5079601;22;20500;-71
2023/08/03 04:59:25;;;;;;;2.00;1.13;;;16.10;99.90;;;;;;5051330;28;20475;-71
2023/08/03 05:01:51;;;;;;;2.70;1.33;;;16.00;99.90;;;;;;5070573;28;20458;-71
2023/08/03 05:04:19;;;;;;;2.80;1.20;;;16.00;99.90;;;;;;5070261;28;20479;-71
2023/08/03 05:06:46;;;;;;;1.50;1.00;;;16.10;99.90;;;;;;5070387;28;20468;-71
2023/08/03 05:09:13;;;;;;;3.13;1.00;;;16.00;99.90;;;;;;5070016;28;20477;-71
2023/08/03 05:11:39;;;;;;;3.80;1.40;;;16.00;99.90;;;;;;5069989;28;20461;-71
2023/08/03 05:14:06;;;;;;;1.40;1.07;;;16.00;99.90;;;;;;5070459;28;20465;-71
2023/08/03 05:16:33;;;;;;;1.67;1.30;;;16.10;99.90;;;;;;5069778;28;20449;-71
2023/08/03 05:18:59;;;;;;;1.47;1.17;;;16.10;99.90;;;;;;5070112;28;20803;-71
2023/08/03 05:21:27;;;;;;;1.93;0.90;;;16.10;99.90;;;;;;5069879;28;20462;-71
2023/08/03 05:23:54;;;;;;;2.20;0.90;;;16.10;99.90;;;;;;5070106;28;21004;-71
2023/08/03 05:26:21;;;;;;;2.73;1.20;;;16.10;99.90;;;;;;5069804;28;20460;-71
2023/08/03 05:28:47;;;;;;;2.00;0.90;;;16.10;99.90;;;;;;5069729;28;20474;-70
2023/08/03 05:31:14;;;;;;;2.20;1.00;;;16.10;99.90;;;;;;5054435;28;20452;-71
2023/08/03 05:33:41;;;;;;;2.50;1.03;;;16.10;99.90;;;;;;5049817;28;20936;-70
2023/08/03 05:36:09;;;;;;;3.60;1.43;;;16.10;99.90;;;;;;5050041;28;20462;-71
2023/08/03 05:38:37;;;;;;;1.00;0.80;;;16.10;99.90;;;;;;5049370;28;20489;-71
2023/08/03 05:41:06;;;;;;;1.10;0.90;;;16.10;99.90;;;;;;5049970;28;20951;-71
2023/08/03 05:43:33;;;;;;;1.10;1.00;;;16.10;99.90;;;;;;5058828;28;20483;-71
2023/08/03 05:46:01;;;;;;;2.60;1.10;;;16.20;99.90;;;;;;5054060;28;20455;-71
2023/08/03 05:48:30;;;;;;;2.50;1.10;;;16.20;99.90;;;;;;5056367;28;20536;-71
2023/08/03 05:50:57;;;;;;;1.20;1.00;;;16.20;99.90;;;;;;5070021;28;20468;-71
2023/08/03 05:53:24;;;;;;;1.50;1.10;;;16.20;99.90;;;;;;5064648;28;20513;-71
2023/08/03 05:55:53;;;;;;;1.20;0.90;;;16.20;99.90;;;;;;5068856;28;20463;-71
2023/08/03 05:58:20;;;;;;;2.10;1.20;;;16.20;99.90;;;;;;5068750;28;20487;-71
2023/08/03 06:00:48;;;;;;;2.07;1.07;;;16.20;99.90;;;;;;5058653;28;20544;-71
2023/08/03 06:03:17;;;;;;;2.00;1.37;;;16.30;99.90;;;;;;5069764;28;20481;-71
2023/08/03 06:05:45;;;;;;;1.67;0.90;;;16.30;99.90;;;;;;5060135;28;20465;-71
2023/08/03 06:08:17;;;;;;;2.23;1.30;;;16.30;99.90;;;;;;5069124;28;20471;-71
2023/08/03 06:10:44;;;;;;;2.77;1.10;;;16.40;99.90;;;;;;5060997;28;20462;-72
2023/08/03 06:13:15;;;;;;;1.90;1.13;;;16.40;99.90;;;;;;5053884;28;20546;-71
2023/08/03 06:15:43;;;;;;;2.27;1.00;;;16.40;99.90;;;;;;5052033;28;20466;-71
2023/08/03 06:18:12;;;;;;;1.73;1.10;;;16.40;99.90;;;;;;5068025;28;20479;-71
2023/08/03 06:20:41;;;;;;;0.90;0.80;;;16.40;99.90;;;;;;5072948;28;20461;-71
2023/08/03 06:23:13;;;;;;;2.20;0.93;;;16.50;99.90;;;;;;5059079;28;20553;-71
2023/08/03 06:25:39;;;;;;;0.87;0.80;;;16.50;99.90;;;;;;5071479;28;20454;-71
2023/08/03 06:28:06;;;;;;;1.60;1.10;;;16.60;99.90;;;;;;5072818;28;20478;-71
2023/08/03 06:30:36;;;;;;;0.90;0.73;;;16.60;99.90;;;;;;5071284;28;20450;-71
2023/08/03 06:33:03;;;;;;;1.00;0.80;;;16.80;99.90;;;;;;5053581;28;20505;-71
2023/08/03 06:35:38;;;;;;;1.10;0.90;;;16.80;99.90;;;;;;5057387;28;20872;-71
2023/08/03 06:38:06;;;;;;;2.57;1.20;;;16.90;99.90;;;;;;5056430;28;20938;-71
2023/08/03 06:40:33;;;;;;;1.87;1.17;;;17.00;99.90;;;;;;5051907;28;20547;-71
2023/08/03 06:43:01;;;;;;;4.60;1.10;;;17.00;99.90;;;;;;5053444;28;20513;-71
2023/08/03 06:45:27;;;;;;;0.90;0.80;;;17.10;99.90;;;;;;5052106;28;20463;-70
2023/08/03 06:47:55;;;;;;;2.83;1.13;;;17.10;99.90;;;;;;5064723;28;20483;-70
2023/08/03 06:50:22;;;;;;;1.53;1.03;;;17.20;99.90;;;;;;5072674;28;20462;-70
2023/08/03 06:52:49;;;;;;;3.27;1.10;;;17.20;99.90;;;;;;5071668;28;20467;-70
2023/08/03 06:55:16;;;;;;;1.87;1.10;;;17.30;99.90;;;;;;5072589;28;20707;-71
2023/08/03 06:57:43;;;;;;;2.07;1.27;;;17.30;99.90;;;;;;5072177;28;20470;-71
2023/08/03 07:00:11;;;;;;;1.50;1.10;;;17.30;99.90;;;;;;5072423;28;20461;-71
2023/08/03 07:02:38;;;;;;;2.70;0.97;;;17.40;99.90;;;;;;5072247;28;20961;-71
2023/08/03 07:05:06;;;;;;;1.17;0.97;;;17.40;99.90;;;;;;5072136;28;20480;-71
2023/08/03 07:07:33;;;;;;;1.30;0.90;;;17.40;99.90;;;;;;5060736;28;20501;-71
2023/08/03 07:10:00;;;;;;;1.27;0.80;;;17.50;99.90;;;;;;5064174;28;20463;-70
2023/08/03 07:12:27;;;;;;;1.27;1.17;;;17.50;99.90;;;;;;5071767;28;20866;-70
2023/08/03 07:14:54;;;;;;;1.83;1.30;;;17.60;99.90;;;;;;5070035;28;20464;-71
2023/08/03 07:17:20;;;;;;;1.17;1.00;;;17.60;99.90;;;;;;5062740;28;20847;-71
2023/08/03 07:19:50;;;;;;;1.77;1.33;;;17.70;99.90;;;;;;5070857;28;20466;-71
2023/08/03 07:22:18;;;;;;;2.20;1.10;;;17.70;99.90;;;;;;5070966;28;20966;-70
2023/08/03 07:24:45;;;;;;;1.53;1.00;;;17.80;99.90;;;;;;5070472;28;20478;-70
2023/08/03 07:27:12;;;;;;;6.17;1.17;;;17.80;99.90;;;;;;5071109;28;20462;-70
2023/08/03 07:29:38;;;;;;;2.73;1.93;;;17.80;99.90;;;;;;5070009;28;20477;-71
2023/08/03 07:32:06;;;;;;;1.90;0.80;;;17.90;99.90;;;;;;5071407;28;20462;-71
2023/08/03 07:34:33;;;;;;;1.00;0.80;;;18.10;99.90;;;;;;5070585;28;20451;-71
2023/08/03 07:37:01;;;;;;;2.03;1.20;;;18.10;99.90;;;;;;5070521;28;20469;-71
2023/08/03 07:39:29;;;;;;;1.00;0.80;;;18.10;99.90;;;;;;5070877;28;20475;-70
2023/08/03 07:41:56;;;;;;;2.43;1.10;;;18.00;99.90;;;;;;5070577;28;20827;-71
2023/08/03 07:44:23;;;;;;;3.23;1.10;;;18.00;99.90;;;;;;5070169;28;20481;-71
2023/08/03 07:46:49;;;;;;;1.93;1.20;;;18.10;99.90;;;;;;5070639;28;20835;-71
2023/08/03 07:49:16;;;;;;;1.10;0.80;;;18.10;99.90;;;;;;5070364;28;20479;-71
2023/08/03 07:51:44;;;;;;;2.30;1.20;;;18.30;99.90;;;;;;5069965;28;20479;-71
2023/08/03 07:54:11;;;;;;;0.90;0.70;;;18.30;99.90;;;;;;5070249;28;20451;-71
2023/08/03 07:56:39;;;;;;;1.00;0.70;;;18.40;99.90;;;;;;5070489;28;20458;-71
2023/08/03 07:59:05;;;;;;;2.83;1.20;;;18.40;99.90;;;;;;5069948;28;20867;-71
2023/08/03 08:01:32;;;;;;;1.70;0.90;;;18.40;99.90;;;;;;5070349;28;20999;-70
2023/08/03 08:04:01;;;;;;;1.43;0.90;;;18.40;99.90;;;;;;5070106;28;20486;-70
2023/08/03 08:06:28;;;;;;;1.10;0.90;;;18.50;99.90;;;;;;5069452;28;20469;-70
2023/08/03 08:08:55;;;;;;;3.00;1.17;;;18.50;99.90;;;;;;5069928;28;21017;-70
2023/08/03 08:11:22;;;;;;;2.70;1.27;;;18.50;99.90;;;;;;5070463;28;20461;-70
2023/08/03 08:13:50;;;;;;;1.83;1.20;;;18.60;99.90;;;;;;5068648;28;20459;-71
2023/08/03 08:16:17;;;;;;;2.40;1.10;;;18.70;99.90;;;;;;5069653;28;20838;-71
2023/08/03 08:18:44;;;;;;;2.60;1.03;;;18.80;99.90;;;;;;5069180;28;20474;-70
2023/08/03 08:21:12;;;;;;;3.10;1.33;;;18.90;99.90;;;;;;5069458;28;20486;-71
2023/08/03 08:23:46;;;;;;;2.20;1.00;;;19.00;99.90;;;;;;5070739;28;20486;-71
2023/08/03 08:26:13;;;;;;;2.30;1.30;;;19.00;99.90;;;;;;5071164;28;20462;-70
2023/08/03 08:28:41;;;;;;;5.30;1.40;;;19.10;99.90;;;;;;5070613;28;20478;-71
2023/08/03 08:31:09;;;;;;;1.37;1.10;;;19.20;99.90;;;;;;5067794;28;20818;-70
2023/08/03 08:33:37;;;;;;;1.30;1.00;;;19.10;99.90;;;;;;5068827;28;20556;-71
2023/08/03 08:36:04;;;;;;;1.50;1.00;;;19.10;99.90;;;;;;5049628;28;20457;-71
2023/08/03 08:38:31;;;;;;;2.30;1.23;;;19.10;99.90;;;;;;5056360;28;20474;-70
2023/08/03 08:41:01;;;;;;;1.47;1.00;;;19.20;99.90;;;;;;5068965;28;20541;-71
2023/08/03 08:43:28;;;;;;;1.27;1.10;;;19.20;99.90;;;;;;5062855;28;20487;-71
2023/08/03 08:45:55;;;;;;;3.90;1.13;;;19.20;99.90;;;;;;5049008;28;20755;-71
2023/08/03 08:48:23;;;;;;;0.93;0.80;;;19.10;99.90;;;;;;5049516;28;20490;-71
2023/08/03 08:50:51;;;;;;;1.30;0.90;;;19.10;99.90;;;;;;5058670;28;20455;-70
2023/08/03 08:53:18;;;;;;;1.20;0.83;;;19.20;99.90;;;;;;5068535;28;20456;-70
2023/08/03 08:55:46;;;;;;;1.80;1.10;;;19.40;99.90;;;;;;5068744;28;20455;-71
2023/08/03 08:58:13;;;;;;;2.67;1.03;;;19.40;99.90;;;;;;5064011;28;20585;-71
2023/08/03 09:00:44;;;;;;;1.53;0.80;;;19.50;99.90;;;;;;5057245;28;20840;-71
2023/08/03 09:03:11;;;;;;;1.30;0.80;;;19.60;99.90;;;;;;5049253;28;20467;-70
2023/08/03 09:05:39;;;;;;;1.23;0.90;;;19.60;99.90;;;;;;5065357;28;20487;-71
2023/08/03 09:08:08;;;;;;;2.93;1.50;;;19.60;99.90;;;;;;5048627;28;20479;-71
2023/08/03 09:10:49;;;;;;;1.13;0.90;;;19.40;99.90;;;;;;5049239;28;21093;-71
2023/08/03 09:13:26;;;;;;;4.10;0.93;;;19.40;99.90;;;;;;5062316;28;20460;-71
2023/08/03 09:15:53;;;;;;;3.37;2.27;;;19.40;99.90;;;;;;5067875;28;20466;-71
2023/08/03 09:18:21;;;;;;;1.30;1.10;;;19.50;99.90;;;;;;5068789;28;20474;-71
2023/08/03 09:20:49;;;;;;;0.97;0.73;;;19.70;99.90;;;;;;5068477;28;20467;-70
2023/08/03 09:23:28;;;;;;;1.53;1.00;;;19.80;99.90;;;;;;5048364;28;20467;-71
2023/08/03 09:25:55;;;;;;;3.00;1.10;;;20.00;99.90;;;;;;5050148;28;20484;-71
2023/08/03 09:28:33;;;;;;;0.90;0.80;;;20.20;99.90;;;;;;5068531;28;20485;-71
2023/08/03 09:31:00;;;;;;;2.80;1.13;;;20.20;99.90;;;;;;5067817;28;20460;-71
2023/08/03 09:33:27;;;;;;;2.00;0.80;;;20.00;99.90;;;;;;5068689;28;20961;-71
2023/08/03 09:36:07;;;;;;;1.10;0.80;;;19.90;99.90;;;;;;5068325;28;20458;-71
2023/08/03 09:38:35;;;;;;;1.53;1.00;;;19.90;99.90;;;;;;5048103;28;20564;-71
2023/08/03 09:41:01;;;;;;;1.33;0.83;;;19.90;99.90;;;;;;5048335;28;20460;-70
2023/08/03 09:43:29;;;;;;;1.00;0.80;;;20.10;99.90;;;;;;5048563;28;20461;-70
2023/08/03 09:45:57;;;;;;;2.37;2.10;;;20.10;99.90;;;;;;5065221;28;20482;-71
2023/08/03 09:48:25;;;;;;;1.10;0.80;;;20.00;99.90;;;;;;5048563;28;20856;-71
2023/08/03 09:50:53;;;;;;;1.67;1.10;;;19.80;99.90;;;;;;5065626;28;20464;-70
2023/08/03 09:53:23;;;;;;;1.47;0.90;;;19.70;99.90;;;;;;5067654;28;20469;-70
2023/08/03 09:55:58;;;;;;;1.00;0.90;;;19.70;99.90;;;;;;5068206;28;20457;-71
2023/08/03 09:58:30;;;;;;;1.97;1.17;;;19.70;99.90;;;;;;5068031;28;20474;-70
2023/08/03 10:00:59;;;;;;;1.47;0.80;;;19.70;99.90;;;;;;5067690;28;20461;-70
2023/08/03 10:03:29;;;;;;;1.90;0.93;;;19.70;99.90;;;;;;5068133;28;20464;-70
2023/08/03 10:06:03;;;;;;;1.20;1.00;;;19.70;99.90;;;;;;5067733;28;20491;-70
2023/08/03 10:08:39;;;;;;;2.50;1.00;;;19.70;99.90;;;;;;5067641;28;20481;-71
2023/08/03 10:11:10;;;;;;;1.60;0.90;;;19.70;99.90;;;;;;5068061;28;20936;-71
2023/08/03 10:13:41;;;;;;;2.60;1.17;;;19.60;99.90;;;;;;5055884;28;20870;-70
2023/08/03 10:16:08;;;;;;;2.60;0.93;;;19.60;99.90;;;;;;5061139;28;20469;-71
2023/08/03 10:18:36;;;;;;;0.93;0.70;;;19.50;99.90;;;;;;5068200;28;20482;-71
2023/08/03 10:21:04;;;;;;;0.80;0.70;;;19.60;99.90;;;;;;5057544;28;20464;-70
2023/08/03 10:23:31;;;;;;;1.97;1.33;;;19.70;99.90;;;;;;5049339;28;20460;-70
2023/08/03 10:26:00;;;;;;;1.00;0.80;;;19.70;99.90;;;;;;5048730;28;20482;-71
2023/08/03 10:28:28;;;;;;;1.10;0.80;;;19.70;99.90;;;;;;5063036;28;20485;-71
2023/08/03 10:31:15;;;;;;;0.90;0.80;;;19.70;99.90;;;;;;5051489;28;20464;-71
2023/08/03 10:34:14;;;;;;;1.00;0.80;;;19.70;99.90;;;;;;5069169;28;20467;-71
2023/08/03 10:36:48;;;;;;;1.03;0.77;;;19.60;99.90;;;;;;5068846;28;20460;-71
2023/08/03 10:39:18;;;;;;;1.10;0.80;;;19.60;99.90;;;;;;5068676;28;21009;-71
2023/08/03 10:41:49;;;;;;;1.10;0.70;;;19.40;99.90;;;;;;5068712;28;20448;-71
2023/08/03 10:44:26;;;;;;;1.50;0.90;;;19.30;99.90;;;;;;5070476;28;20465;-71
2023/08/03 10:46:54;;;;;;;1.13;0.73;;;19.30;99.90;;;;;;5068575;28;20454;-71
2023/08/03 10:49:50;;;;;;;1.70;1.03;;;19.30;99.90;;;;;;5068515;28;20482;-71
2023/08/03 10:52:21;;;;;;;1.27;0.90;;;19.40;99.90;;;;;;5048803;28;20466;-71
2023/08/03 10:54:48;;;;;;;1.33;1.00;;;19.50;99.90;;;;;;5051932;28;20831;-71
2023/08/03 10:57:19;;;;;;;1.00;0.83;;;19.60;99.90;;;;;;5051571;28;20471;-71
2023/08/03 10:59:47;;;;;;;1.10;0.90;;;19.70;99.90;;;;;;5052609;28;20534;-71
2023/08/03 11:02:18;;;;;;;0.80;0.70;;;19.60;99.90;;;;;;5065932;28;20852;-71
2023/08/03 11:04:45;;;;;;;1.77;0.80;;;19.70;99.90;;;;;;5068389;28;20573;-71
2023/08/03 11:07:17;;;;;;;2.30;0.80;;;19.70;99.90;;;;;;5066289;28;20470;-71
2023/08/03 11:09:45;;;;;;;3.90;1.10;;;19.80;99.90;;;;;;5060617;28;20486;-71
2023/08/03 11:12:16;;;;;;;1.30;0.87;;;19.80;99.90;;;;;;5047735;28;20863;-71
2023/08/03 11:14:45;;;;;;;1.30;0.93;;;19.90;99.90;;;;;;5047951;28;20520;-70
2023/08/03 11:17:13;;;;;;;2.10;1.10;;;19.90;99.90;;;;;;5065784;28;20543;-71
2023/08/03 11:19:40;;;;;;;1.07;0.97;;;20.00;99.90;;;;;;5053009;28;20481;-71
2023/08/03 11:22:08;;;;;;;2.77;1.43;;;20.00;99.90;;;;;;5047111;28;20468;-71
2023/08/03 11:24:36;;;;;;;0.80;0.70;;;20.10;99.90;;;;;;5047159;28;20486;-71
2023/08/03 11:27:04;;;;;;;2.03;1.07;;;20.10;99.90;;;;;;5048217;28;20468;-71
2023/08/03 11:29:31;;;;;;;1.77;0.90;;;20.10;99.90;;;;;;5067601;28;20489;-71
2023/08/03 11:31:59;;;;;;;1.53;1.10;;;20.10;99.90;;;;;;5067382;28;20544;-72
2023/08/03 11:34:26;;;;;;;1.30;0.87;;;20.10;99.90;;;;;;5067656;28;20451;-71
2023/08/03 11:36:53;;;;;;;1.00;0.90;;;20.20;99.90;;;;;;5067711;28;20987;-71
2023/08/03 11:39:20;;;;;;;1.50;1.10;;;20.30;99.90;;;;;;5066653;28;20488;-71
2023/08/03 11:41:48;;;;;;;1.50;1.03;;;20.40;99.90;;;;;;5067314;28;20466;-71
2023/08/03 11:44:15;;;;;;;1.20;0.80;;;20.30;99.90;;;;;;5066746;28;20600;-71
2023/08/03 11:46:42;;;;;;;3.67;1.20;;;20.20;99.90;;;;;;5060848;28;21209;-71
2023/08/03 11:49:14;;;;;;;2.00;1.10;;;20.20;99.90;;;;;;5046478;28;20489;-71
2023/08/03 11:51:41;;;;;;;1.50;0.93;;;20.40;99.90;;;;;;5047303;28;20536;-71
2023/08/03 11:54:10;;;;;;;3.03;0.93;;;20.60;99.90;;;;;;5047381;28;20548;-71
2023/08/03 11:56:38;;;;;;;1.10;0.80;;;20.70;99.90;;;;;;5047995;28;20516;-71
2023/08/03 11:59:05;;;;;;;1.00;0.80;;;20.70;99.90;;;;;;5046885;28;20481;-70
2023/08/03 12:01:32;;;;;;;3.13;1.50;;;20.80;99.90;;;;;;5046970;28;20467;-71
2023/08/03 12:04:06;;;;;;;1.20;0.77;;;20.80;99.90;;;;;;5055962;28;20472;-71
2023/08/03 12:06:45;;;;;;;1.43;0.90;;;20.80;99.90;;;;;;5067345;28;20492;-71
2023/08/03 12:09:17;;;;;;;1.53;1.27;;;21.20;99.90;;;;;;5066195;28;20505;-71
2023/08/03 12:11:44;;;;;;;1.00;0.90;;;21.50;99.90;;;;;;5067691;28;20556;-71
2023/08/03 12:14:11;;;;;;;0.90;0.73;;;21.60;99.90;;;;;;5066804;28;20834;-71
2023/08/03 12:16:38;;;;;;;1.53;0.83;;;21.60;99.90;;;;;;5068489;28;20512;-71
2023/08/03 12:19:08;;;;;;;0.97;0.80;;;21.50;99.90;;;;;;5071711;28;20486;-71
2023/08/03 12:21:35;;;;;;;1.60;1.30;;;21.30;99.90;;;;;;5072563;28;20467;-71
2023/08/03 12:24:04;;;;;;;1.00;0.80;;;21.20;99.90;;;;;;5071600;28;20466;-71
2023/08/03 12:26:31;;;;;;;0.90;0.73;;;21.10;99.90;;;;;;5071432;28;20488;-71
2023/08/03 12:28:58;;;;;;;1.10;0.80;;;21.00;99.90;;;;;;5071804;28;20486;-71
2023/08/03 12:31:25;;;;;;;1.63;0.80;;;20.80;99.90;;;;;;5052014;28;20470;-71
2023/08/03 12:33:52;;;;;;;1.53;0.80;;;20.50;99.90;;;;;;5067806;28;20462;-71
2023/08/03 12:36:18;;;;;;;1.27;0.97;;;20.40;99.90;;;;;;5060762;28;20458;-71
2023/08/03 12:38:45;;;;;;;2.07;1.00;;;20.40;99.90;;;;;;5052066;28;20485;-70
2023/08/03 12:41:13;;;;;;;1.13;0.90;;;20.50;99.90;;;;;;5052505;28;20456;-71
2023/08/03 12:43:40;;;;;;;2.13;0.80;;;20.70;99.90;;;;;;5052277;28;20455;-70
2023/08/03 12:46:07;;;;;;;1.10;1.00;;;20.90;99.90;;;;;;5051494;28;20482;-71
2023/08/03 12:48:33;;;;;;;1.23;0.93;;;21.00;99.90;;;;;;5052045;28;20476;-71
2023/08/03 12:51:00;;;;;;;1.00;0.90;;;21.00;99.90;;;;;;5052512;28;20454;-71
2023/08/03 12:53:27;;;;;;;1.70;1.00;;;20.90;99.90;;;;;;5051295;28;20524;-71